Главная страница
METAR-TAF:

METAR-TAF

Аэропорты :

Понпеи, Микронезия

широта: 06-59N, долгота: 158-12E, высота над уровнем моря: 2 м

Текущие метеонаблюдения

Эта сводка был подготовлена 5 часа и 58 минут назад, в 03:50 UTC
Ветер 10 Узел от восточно-северо-восточный
Температура 31°C
Влажность 75%
Давление 1009 hPa
Видимость: 24.1 км
Рассеянная облачность на высоте 1800 фута, мощно-кучевые.
Сплошная облачность на высоте 30000 фута

METAR: PTPN 260350Z 06010KT 15SM BKN018TCU OVC300 31/26 A2979 RMK TCU ALQDS LAST

Время: 20:48 (09:48 UTC)

Прогноз

Эта сводка был подготовлена 10 часа и 27 минут назад, в 23:21 UTC
Прогноз действительный с 26-го 00 UTC до 26-го 24 UTC
Ветер 10 Узел от восточный
Видимость: 10 км
Отдельные облака на высоте 1800 фута
Отдельные облака на высоте 12000 фута
ливни в окрестностях,

TAF: PTPN 252321Z 2600/2624 08010KT P6SM VCSH SCT018 SCT120

Метеонаблюдения и прогнозы для более 4000 аэропортов (сводки METAR и TAF).

Имеющиеся станции представлены на карте желтыми и красными точками.

Чтобы увидеть название станции, наведите на нее мышь.

Затем щелкните, чтобы увидеть метеонаблюдения и метеопрогнозы.

Управление картой: чтобы увеличить масштаб, щелкните зеленые кнопки с черным крестиком; чтобы уменьшить масштаб, щелкните зеленую кнопку с тире; для просмотра соседних карт щелкайте зеленые стрелки.


METAR-TAF: